Time;durP1;ratioP1;P1;durP2;ratioP2;P2;SDS_P1;SDS_P2;PMS_P1;PMS_P2;Temp;Humidity;BMP_temperature;BMP_pressure;BME280_temperature;BME280_humidity;BME280_pressure;Samples;Min_cycle;Max_cycle;Signal;HPM_P1;HPM_P2
2024/02/21 00:00:02;;;;;;;;;;;;;;;-0.28;75.33;101908.66;107590;1253;108217;-64
2024/02/21 00:02:31;;;;;;;;;;;;;;;-0.29;75.13;101909.56;107594;1254;98548;-65
2024/02/21 00:04:59;;;;;;;;;;;;;;;-0.28;75.42;101902.85;107615;1254;97934;-63
2024/02/21 00:07:28;;;;;;;;;;;;;;;-0.26;75.47;101893.98;107531;1253;111090;-65
2024/02/21 00:09:56;;;;;;;;;;;;;;;-0.24;75.68;101892.16;107598;1253;107928;-67
2024/02/21 00:12:24;;;;;;;;;;;;;;;-0.21;75.80;101893.34;107649;1256;107470;-64
2024/02/21 00:14:53;;;;;;;;;;;;;;;-0.20;75.96;101898.40;107638;1251;98625;-63
2024/02/21 00:17:21;;;;;;;;;;;;;;;-0.20;75.64;101896.64;107600;1251;97906;-63
2024/02/21 00:19:50;;;;;;;;;;;;;;;-0.21;75.66;101894.56;107592;1250;112041;-63
2024/02/21 00:22:18;;;;;;;;;;;;;;;-0.22;75.60;101892.10;107567;1251;108526;-64
2024/02/21 00:24:46;;;;;;;;;;;;;;;-0.25;75.70;101890.77;107589;1254;107000;-63
2024/02/21 00:27:14;;;;;;;;;;;;;;;-0.26;75.65;101886.06;107572;1254;97859;-65
2024/02/21 00:29:42;;;;;;;;;;;;;;;-0.26;75.72;101878.09;107633;1253;97722;-65
2024/02/21 00:32:11;;;;;;;;;;;;;;;-0.26;75.73;101878.11;107559;1254;111710;-64
2024/02/21 00:34:39;;;;;;;;;;;;;;;-0.27;75.71;101884.13;107616;1254;106875;-65
2024/02/21 00:37:07;;;;;;;;;;;;;;;-0.30;75.68;101879.98;107597;1253;108412;-63
2024/02/21 00:39:36;;;;;;;;;;;;;;;-0.34;75.32;101879.55;107613;1255;97927;-63
2024/02/21 00:42:07;;;;;;;;;;;;;;;-0.39;75.30;101876.52;107630;1254;97860;-66
2024/02/21 00:44:35;;;;;;;;;;;;;;;-0.41;75.59;101874.45;107616;1254;111527;-64
2024/02/21 00:47:03;;;;;;;;;;;;;;;-0.40;75.73;101867.53;107588;1256;107955;-65
2024/02/21 00:49:31;;;;;;;;;;;;;;;-0.39;76.06;101869.08;107577;1250;107933;-63
2024/02/21 00:51:59;;;;;;;;;;;;;;;-0.37;76.18;101871.70;107559;1254;97859;-64
2024/02/21 00:54:28;;;;;;;;;;;;;;;-0.36;76.07;101867.63;107576;1253;97733;-63
2024/02/21 00:57:11;;;;;;;;;;;;;;;-0.37;75.91;101867.28;107594;1256;111382;-63
2024/02/21 00:59:41;;;;;;;;;;;;;;;-0.41;75.94;101864.39;107660;1254;108298;-64
2024/02/21 01:02:09;;;;;;;;;;;;;;;-0.44;75.72;101867.46;107600;1254;108575;-64
2024/02/21 01:04:38;;;;;;;;;;;;;;;-0.46;75.85;101863.63;107544;1251;97927;-64
2024/02/21 01:07:06;;;;;;;;;;;;;;;-0.48;75.76;101858.03;107568;1254;97707;-63
2024/02/21 01:09:35;;;;;;;;;;;;;;;-0.49;75.75;101859.98;107604;1253;111809;-65
2024/02/21 01:12:03;;;;;;;;;;;;;;;-0.51;75.85;101857.93;107586;1253;108291;-64
2024/02/21 01:14:32;;;;;;;;;;;;;;;-0.51;75.91;101855.29;107591;1253;107193;-64
2024/02/21 01:17:01;;;;;;;;;;;;;;;-0.48;75.92;101857.69;107511;1253;97832;-64
2024/02/21 01:19:29;;;;;;;;;;;;;;;-0.46;76.46;101855.70;107647;1255;97838;-64
2024/02/21 01:21:57;;;;;;;;;;;;;;;-0.44;76.31;101852.13;107611;1253;113068;-63
2024/02/21 01:24:26;;;;;;;;;;;;;;;-0.44;76.18;101845.24;107585;1254;108828;-62
2024/02/21 01:26:54;;;;;;;;;;;;;;;-0.44;76.13;101844.02;107596;1253;108521;-63
2024/02/21 01:29:22;;;;;;;;;;;;;;;-0.44;76.36;101841.55;107589;1255;97858;-66
2024/02/21 01:31:50;;;;;;;;;;;;;;;-0.43;76.31;101840.28;107603;1254;97830;-66
2024/02/21 01:34:19;;;;;;;;;;;;;;;-0.42;76.49;101841.16;107467;1253;111511;-63
2024/02/21 01:36:47;;;;;;;;;;;;;;;-0.43;76.29;101841.70;107640;1254;107036;-63
2024/02/21 01:39:15;;;;;;;;;;;;;;;-0.45;76.19;101840.86;107585;1253;107605;-64
2024/02/21 01:41:44;;;;;;;;;;;;;;;-0.44;76.25;101840.48;107584;1253;97835;-64
2024/02/21 01:44:12;;;;;;;;;;;;;;;-0.44;76.24;101839.78;107632;1254;97919;-67
2024/02/21 01:46:41;;;;;;;;;;;;;;;-0.44;76.20;101839.95;107614;1254;111467;-67
2024/02/21 01:49:09;;;;;;;;;;;;;;;-0.44;76.23;101839.08;107608;1253;108466;-63
2024/02/21 01:51:38;;;;;;;;;;;;;;;-0.46;76.05;101838.78;107624;1251;107475;-63
2024/02/21 01:54:07;;;;;;;;;;;;;;;-0.46;76.25;101842.30;107558;1250;97828;-62
2024/02/21 01:56:35;;;;;;;;;;;;;;;-0.44;76.24;101840.13;107564;1254;97834;-66
2024/02/21 01:59:03;;;;;;;;;;;;;;;-0.44;76.11;101840.66;107602;1254;112209;-62
2024/02/21 02:01:32;;;;;;;;;;;;;;;-0.44;76.16;101841.02;107581;1251;108322;-63
2024/02/21 02:04:00;;;;;;;;;;;;;;;-0.47;75.80;101840.04;107601;1251;108286;-65
2024/02/21 02:06:30;;;;;;;;;;;;;;;-0.49;75.82;101838.50;107527;1251;97837;-63
2024/02/21 02:08:58;;;;;;;;;;;;;;;-0.51;76.09;101832.38;107604;1254;97919;-64
2024/02/21 02:11:27;;;;;;;;;;;;;;;-0.53;75.84;101837.36;107547;1251;112200;-64
2024/02/21 02:13:55;;;;;;;;;;;;;;;-0.56;75.85;101836.02;107571;1254;107576;-66
2024/02/21 02:16:23;;;;;;;;;;;;;;;-0.56;76.18;101837.42;107549;1254;107487;-64
2024/02/21 02:18:51;;;;;;;;;;;;;;;-0.57;76.12;101834.98;107585;1254;97844;-65
2024/02/21 02:21:29;;;;;;;;;;;;;;;-0.57;76.17;101834.65;107642;1253;97703;-64
2024/02/21 02:23:58;;;;;;;;;;;;;;;-0.58;76.24;101837.48;107563;1251;111827;-63
2024/02/21 02:26:27;;;;;;;;;;;;;;;-0.60;75.87;101841.58;107514;1253;107306;-63
2024/02/21 02:28:55;;;;;;;;;;;;;;;-0.63;75.85;101836.02;107544;1255;107873;-63
2024/02/21 02:31:24;;;;;;;;;;;;;;;-0.66;76.01;101834.33;107560;1256;97850;-64
2024/02/21 02:33:52;;;;;;;;;;;;;;;-0.67;76.18;101835.93;107590;1253;97902;-65
2024/02/21 02:36:20;;;;;;;;;;;;;;;-0.68;75.98;101838.08;107615;1255;110803;-64
2024/02/21 02:38:48;;;;;;;;;;;;;;;-0.69;76.11;101837.95;107564;1254;108426;-63
2024/02/21 02:41:17;;;;;;;;;;;;;;;-0.73;76.07;101840.31;107563;1255;108416;-63
2024/02/21 02:43:45;;;;;;;;;;;;;;;-0.76;75.82;101840.91;107547;1254;98016;-63
2024/02/21 02:46:13;;;;;;;;;;;;;;;-0.79;76.10;101841.15;107669;1252;98047;-64
2024/02/21 02:48:42;;;;;;;;;;;;;;;-0.83;76.30;101843.74;107562;1254;112001;-65
2024/02/21 02:51:10;;;;;;;;;;;;;;;-0.86;76.09;101846.80;107612;1255;107578;-65
2024/02/21 02:53:38;;;;;;;;;;;;;;;-0.86;76.37;101844.51;107538;1254;107343;-65
2024/02/21 02:56:07;;;;;;;;;;;;;;;-0.85;76.76;101843.06;107541;1254;97807;-63
2024/02/21 02:58:35;;;;;;;;;;;;;;;-0.85;76.75;101846.95;107623;1254;97812;-64
2024/02/21 03:01:04;;;;;;;;;;;;;;;-0.85;76.72;101841.84;107622;1254;112464;-64
2024/02/21 03:03:33;;;;;;;;;;;;;;;-0.84;76.84;101845.35;107612;1251;108716;-64
2024/02/21 03:06:01;;;;;;;;;;;;;;;-0.84;76.72;101847.98;107589;1251;108668;-66
2024/02/21 03:08:29;;;;;;;;;;;;;;;-0.86;76.68;101849.25;107575;1253;97800;-64
2024/02/21 03:10:57;;;;;;;;;;;;;;;-0.88;76.34;101849.83;107510;1253;97713;-63
2024/02/21 03:13:26;;;;;;;;;;;;;;;-0.90;76.16;101849.36;107705;1251;111686;-63
2024/02/21 03:15:54;;;;;;;;;;;;;;;-0.92;76.43;101850.28;107588;1253;108952;-63
2024/02/21 03:18:22;;;;;;;;;;;;;;;-0.93;76.53;101849.24;107584;1252;108701;-64
2024/02/21 03:20:51;;;;;;;;;;;;;;;-0.93;76.65;101851.36;107616;1251;97941;-63
2024/02/21 03:23:20;;;;;;;;;;;;;;;-0.96;76.73;101849.83;107600;1253;97935;-64
2024/02/21 03:25:48;;;;;;;;;;;;;;;-0.97;76.62;101850.02;107593;1252;111811;-64
2024/02/21 03:28:16;;;;;;;;;;;;;;;-0.96;76.78;101848.96;107678;1251;108760;-65
2024/02/21 03:30:45;;;;;;;;;;;;;;;-0.95;77.05;101854.39;107571;1251;108503;-63
2024/02/21 03:33:13;;;;;;;;;;;;;;;-0.95;77.21;101853.52;107616;1251;97818;-64
2024/02/21 03:35:42;;;;;;;;;;;;;;;-0.96;77.02;101866.05;107570;1250;97926;-64
2024/02/21 03:38:10;;;;;;;;;;;;;;;-0.97;76.97;101869.42;107582;1254;110060;-66
2024/02/21 03:40:38;;;;;;;;;;;;;;;-1.03;76.75;101862.48;107623;1254;108283;-64
2024/02/21 03:43:06;;;;;;;;;;;;;;;-1.07;76.68;101865.23;107492;1252;107779;-65
2024/02/21 03:45:34;;;;;;;;;;;;;;;-1.05;76.81;101872.23;107583;1252;97826;-64
2024/02/21 03:48:03;;;;;;;;;;;;;;;-1.03;77.05;101868.33;107628;1251;97700;-65
2024/02/21 03:50:32;;;;;;;;;;;;;;;-1.02;77.29;101871.45;107573;1254;111649;-63
2024/02/21 03:53:00;;;;;;;;;;;;;;;-1.01;77.17;101872.98;107597;1254;107932;-63
2024/02/21 03:55:28;;;;;;;;;;;;;;;-0.98;77.43;101871.35;107595;1251;108400;-65
2024/02/21 03:57:57;;;;;;;;;;;;;;;-0.92;77.55;101870.36;107663;1256;97854;-64
2024/02/21 04:00:25;;;;;;;;;;;;;;;-0.86;77.76;101878.50;107628;1251;97815;-63
2024/02/21 04:02:53;;;;;;;;;;;;;;;-0.80;77.69;101875.89;107548;1254;111426;-64
2024/02/21 04:05:21;;;;;;;;;;;;;;;-0.76;77.33;101878.80;107703;1254;108196;-65
2024/02/21 04:07:51;;;;;;;;;;;;;;;-0.74;77.09;101877.16;107642;1254;107499;-63
2024/02/21 04:10:19;;;;;;;;;;;;;;;-0.71;77.31;101877.25;107624;1254;97717;-63
2024/02/21 04:12:50;;;;;;;;;;;;;;;-0.69;77.18;101876.70;107580;1254;97932;-65
2024/02/21 04:15:19;;;;;;;;;;;;;;;-0.65;77.24;101880.29;107629;1255;111725;-64
2024/02/21 04:17:48;;;;;;;;;;;;;;;-0.59;77.55;101877.52;107624;1255;107514;-64
2024/02/21 04:20:16;;;;;;;;;;;;;;;-0.54;77.52;101881.09;107613;1253;108733;-64
2024/02/21 04:22:45;;;;;;;;;;;;;;;-0.52;77.22;101881.58;107577;1253;97874;-65
2024/02/21 04:25:14;;;;;;;;;;;;;;;-0.49;77.22;101882.55;107579;1253;97829;-63
2024/02/21 04:27:42;;;;;;;;;;;;;;;-0.47;77.10;101885.16;107623;1253;111058;-63
2024/02/21 04:30:11;;;;;;;;;;;;;;;-0.44;77.39;101883.85;107597;1251;108384;-63
2024/02/21 04:32:40;;;;;;;;;;;;;;;-0.40;77.18;101887.47;107563;1254;107296;-64
2024/02/21 04:35:08;;;;;;;;;;;;;;;-0.36;77.35;101885.95;107568;1253;97855;-66
2024/02/21 04:37:37;;;;;;;;;;;;;;;-0.30;77.53;101889.50;107639;1254;97914;-65
2024/02/21 04:40:06;;;;;;;;;;;;;;;-0.27;77.64;101889.77;107612;1253;111381;-65
2024/02/21 04:42:34;;;;;;;;;;;;;;;-0.25;77.61;101888.13;107577;1254;106988;-66
2024/02/21 04:45:03;;;;;;;;;;;;;;;-0.21;77.51;101885.20;107634;1254;108412;-65
2024/02/21 04:47:31;;;;;;;;;;;;;;;-0.16;77.55;101883.16;107594;1251;97844;-65
2024/02/21 04:50:00;;;;;;;;;;;;;;;-0.12;77.58;101880.58;107607;1252;98592;-64
2024/02/21 04:52:29;;;;;;;;;;;;;;;-0.08;77.81;101878.53;107613;1254;111813;-64
2024/02/21 04:54:58;;;;;;;;;;;;;;;-0.05;77.61;101877.91;107582;1254;108553;-64
2024/02/21 04:57:26;;;;;;;;;;;;;;;-0.00;77.85;101879.73;107643;1254;107592;-63
2024/02/21 04:59:54;;;;;;;;;;;;;;;0.04;77.74;101878.59;107602;1254;97833;-64
2024/02/21 05:02:24;;;;;;;;;;;;;;;0.06;77.63;101879.05;107548;1251;98022;-65
2024/02/21 05:04:55;;;;;;;;;;;;;;;0.08;77.53;101875.99;107585;1254;111973;-65
2024/02/21 05:07:23;;;;;;;;;;;;;;;0.10;77.65;101880.86;107604;1254;108834;-65
2024/02/21 05:09:51;;;;;;;;;;;;;;;0.15;77.60;101881.80;107609;1255;107714;-66
2024/02/21 05:12:20;;;;;;;;;;;;;;;0.20;77.70;101883.45;107588;1253;98082;-63
2024/02/21 05:14:48;;;;;;;;;;;;;;;0.24;77.83;101890.20;107649;1254;97845;-65
2024/02/21 05:17:17;;;;;;;;;;;;;;;0.28;77.82;101884.64;107584;1256;111388;-65
2024/02/21 05:19:45;;;;;;;;;;;;;;;0.29;77.80;101886.02;107589;1254;108580;-65
2024/02/21 05:22:14;;;;;;;;;;;;;;;0.31;77.70;101884.91;107613;1254;107624;-64
2024/02/21 05:24:42;;;;;;;;;;;;;;;0.35;78.00;101885.67;107509;1254;97842;-65
2024/02/21 05:27:10;;;;;;;;;;;;;;;0.38;78.07;101891.06;107612;1254;97903;-66
2024/02/21 05:29:38;;;;;;;;;;;;;;;0.41;78.12;101890.64;107609;1255;111207;-66
2024/02/21 05:32:07;;;;;;;;;;;;;;;0.44;78.04;101891.08;107596;1254;108442;-69
2024/02/21 05:34:35;;;;;;;;;;;;;;;0.45;77.98;101890.67;107596;1253;107741;-66
2024/02/21 05:37:04;;;;;;;;;;;;;;;0.51;77.88;101886.81;107606;1254;97912;-66
2024/02/21 05:39:32;;;;;;;;;;;;;;;0.57;78.26;101884.70;107579;1254;97749;-65
2024/02/21 05:42:01;;;;;;;;;;;;;;;0.63;78.26;101892.47;107622;1253;111858;-66
2024/02/21 05:44:29;;;;;;;;;;;;;;;0.70;78.20;101892.64;107580;1251;108225;-65
2024/02/21 05:46:57;;;;;;;;;;;;;;;0.75;78.27;101890.35;107594;1253;108048;-65
2024/02/21 05:49:26;;;;;;;;;;;;;;;0.79;78.11;101896.60;107590;1254;97862;-65
2024/02/21 05:51:54;;;;;;;;;;;;;;;0.80;78.11;101896.73;107619;1253;97902;-65
2024/02/21 05:54:22;;;;;;;;;;;;;;;0.85;78.24;101896.97;107617;1255;111794;-65
2024/02/21 05:56:51;;;;;;;;;;;;;;;0.87;77.83;101900.41;107666;1255;108146;-66
2024/02/21 05:59:20;;;;;;;;;;;;;;;0.89;77.98;101899.83;107534;1254;107048;-64
2024/02/21 06:01:57;;;;;;;;;;;;;;;0.89;77.62;101906.73;107635;1254;97835;-64
2024/02/21 06:04:26;;;;;;;;;;;;;;;0.89;77.54;101909.39;107618;1253;97784;-66
2024/02/21 06:06:54;;;;;;;;;;;;;;;0.91;77.70;101906.30;107592;1254;111750;-66
2024/02/21 06:09:23;;;;;;;;;;;;;;;0.97;77.73;101903.68;107588;1254;107877;-66
2024/02/21 06:11:51;;;;;;;;;;;;;;;1.01;77.82;101905.66;107584;1254;107860;-66
2024/02/21 06:14:19;;;;;;;;;;;;;;;1.06;77.93;101907.63;107565;1254;97833;-65
2024/02/21 06:16:48;;;;;;;;;;;;;;;1.09;78.12;101905.25;107600;1254;97839;-66
2024/02/21 06:19:16;;;;;;;;;;;;;;;1.17;77.98;101909.77;107572;1254;110913;-66
2024/02/21 06:21:44;;;;;;;;;;;;;;;1.24;78.04;101916.09;107630;1254;107663;-64
2024/02/21 06:24:13;;;;;;;;;;;;;;;1.31;77.91;101920.48;107623;1254;108077;-66
2024/02/21 06:26:41;;;;;;;;;;;;;;;1.38;77.93;101919.91;107624;1255;97926;-67
2024/02/21 06:29:09;;;;;;;;;;;;;;;1.46;78.06;101919.48;107592;1254;97753;-67
2024/02/21 06:31:37;;;;;;;;;;;;;;;1.54;78.02;101923.10;107568;1254;111990;-66
2024/02/21 06:34:06;;;;;;;;;;;;;;;1.64;78.12;101925.81;107614;1254;107902;-66
2024/02/21 06:36:34;;;;;;;;;;;;;;;1.71;77.84;101925.91;107558;1254;109377;-65
2024/02/21 06:39:07;;;;;;;;;;;;;;;1.80;77.91;101925.98;107578;1254;97836;-64
2024/02/21 06:41:36;;;;;;;;;;;;;;;1.88;77.93;101927.48;107625;1254;97832;-64
2024/02/21 06:44:04;;;;;;;;;;;;;;;1.95;77.93;101930.27;107520;1254;111939;-68
2024/02/21 06:46:33;;;;;;;;;;;;;;;1.99;77.88;101929.56;107617;1251;107915;-66
2024/02/21 06:49:05;;;;;;;;;;;;;;;2.06;78.28;101929.35;107577;1254;107238;-67
2024/02/21 06:51:34;;;;;;;;;;;;;;;2.14;78.31;101925.02;107603;1251;97896;-67
2024/02/21 06:54:04;;;;;;;;;;;;;;;2.20;77.99;101925.53;107596;1251;97925;-67
2024/02/21 06:56:32;;;;;;;;;;;;;;;2.26;78.17;101926.71;107604;1251;112409;-65
2024/02/21 06:59:00;;;;;;;;;;;;;;;2.32;77.90;101927.73;107516;1254;107734;-66
2024/02/21 07:01:29;;;;;;;;;;;;;;;2.39;77.90;101932.48;107555;1254;108345;-65
2024/02/21 07:03:57;;;;;;;;;;;;;;;2.47;78.13;101942.27;107624;1254;97901;-66
2024/02/21 07:06:26;;;;;;;;;;;;;;;2.52;77.95;101942.45;107546;1254;97837;-64
2024/02/21 07:08:54;;;;;;;;;;;;;;;2.49;77.60;101939.17;107587;1254;111496;-65
2024/02/21 07:11:22;;;;;;;;;;;;;;;2.52;77.90;101933.61;107641;1254;108381;-65
2024/02/21 07:13:52;;;;;;;;;;;;;;;2.59;77.88;101940.08;107525;1254;107820;-65
2024/02/21 07:16:20;;;;;;;;;;;;;;;2.66;78.23;101940.16;107609;1250;97887;-65
2024/02/21 07:18:48;;;;;;;;;;;;;;;2.73;78.08;101943.98;107543;1255;98096;-65
2024/02/21 07:21:16;;;;;;;;;;;;;;;2.82;78.22;101942.08;107586;1252;111027;-66
2024/02/21 07:23:45;;;;;;;;;;;;;;;2.91;78.00;101938.58;107485;1254;106625;-66
2024/02/21 07:26:13;;;;;;;;;;;;;;;2.98;78.28;101937.58;107556;1253;108469;-67
2024/02/21 07:28:41;;;;;;;;;;;;;;;3.04;78.32;101936.12;107567;1251;97822;-67
2024/02/21 07:31:09;;;;;;;;;;;;;;;3.11;78.78;101936.17;107588;1254;97693;-65
2024/02/21 07:33:38;;;;;;;;;;;;;;;3.20;78.53;101939.91;107563;1254;111135;-65
2024/02/21 07:36:08;;;;;;;;;;;;;;;3.29;78.63;101940.30;107615;1255;107796;-66
2024/02/21 07:38:36;;;;;;;;;;;;;;;3.39;78.77;101938.27;107505;1256;107145;-65
2024/02/21 07:41:04;;;;;;;;;;;;;;;3.47;78.62;101938.70;107568;1255;97836;-65
2024/02/21 07:43:32;;;;;;;;;;;;;;;3.56;78.67;101940.80;107558;1253;97814;-65
2024/02/21 07:46:01;;;;;;;;;;;;;;;3.66;78.86;101939.38;107521;1254;111534;-67
2024/02/21 07:48:29;;;;;;;;;;;;;;;3.72;78.92;101942.30;107602;1254;107739;-65
2024/02/21 07:51:01;;;;;;;;;;;;;;;3.74;78.78;101942.38;107592;1251;108248;-66
2024/02/21 07:53:30;;;;;;;;;;;;;;;3.79;78.93;101942.21;107538;1255;97889;-65
2024/02/21 07:55:58;;;;;;;;;;;;;;;3.83;78.95;101945.77;107544;1254;98589;-65
2024/02/21 07:58:26;;;;;;;;;;;;;;;3.82;78.59;101945.11;107538;1256;112596;-65
2024/02/21 08:00:55;;;;;;;;;;;;;;;3.88;78.59;101939.90;107551;1251;108606;-67
2024/02/21 08:03:25;;;;;;;;;;;;;;;3.92;78.73;101941.48;107601;1252;108119;-67
2024/02/21 08:05:54;;;;;;;;;;;;;;;3.98;78.71;101942.31;107508;1254;97948;-67
2024/02/21 08:08:22;;;;;;;;;;;;;;;3.98;78.27;101941.08;107590;1250;97825;-66
2024/02/21 08:10:50;;;;;;;;;;;;;;;3.98;78.29;101945.35;107546;1256;111261;-64
2024/02/21 08:13:19;;;;;;;;;;;;;;;4.03;78.32;101949.38;107569;1251;108202;-66
2024/02/21 08:15:47;;;;;;;;;;;;;;;4.12;77.94;101947.41;107539;1251;107422;-66
2024/02/21 08:18:15;;;;;;;;;;;;;;;4.28;77.96;101938.56;107566;1251;97973;-66
2024/02/21 08:20:46;;;;;;;;;;;;;;;4.45;77.91;101940.81;107544;1253;97879;-65
2024/02/21 08:23:18;;;;;;;;;;;;;;;4.67;77.73;101942.89;107600;1254;111627;-67
2024/02/21 08:25:47;;;;;;;;;;;;;;;4.82;77.22;101943.06;107584;1251;108204;-68
2024/02/21 08:28:15;;;;;;;;;;;;;;;5.00;77.19;101947.45;107545;1257;107706;-69
2024/02/21 08:30:47;;;;;;;;;;;;;;;5.17;76.91;101947.55;107572;1250;97816;-67
2024/02/21 08:33:24;;;;;;;;;;;;;;;5.32;76.58;101945.22;107586;1251;97828;-66
2024/02/21 08:35:52;;;;;;;;;;;;;;;5.45;76.61;101945.86;107605;1254;111454;-67
2024/02/21 08:38:20;;;;;;;;;;;;;;;5.56;76.32;101946.20;107595;1251;108755;-66
2024/02/21 08:40:49;;;;;;;;;;;;;;;5.59;75.73;101945.90;107512;1254;108260;-65
2024/02/21 08:43:17;;;;;;;;;;;;;;;5.62;75.87;101949.45;107438;1254;97947;-68
2024/02/21 08:45:45;;;;;;;;;;;;;;;5.67;75.44;101952.45;107504;1254;97837;-65
2024/02/21 08:48:13;;;;;;;;;;;;;;;5.61;74.81;101957.38;106766;1254;1059544;-66
2024/02/21 08:50:41;;;;;;;;;;;;;;;5.56;74.63;101959.23;107564;1251;107405;-65
2024/02/21 08:53:11;;;;;;;;;;;;;;;5.54;74.57;101958.25;107584;1256;108329;-67
2024/02/21 08:55:39;;;;;;;;;;;;;;;5.55;74.65;101960.02;107585;1251;97820;-66
2024/02/21 08:58:09;;;;;;;;;;;;;;;5.54;74.58;101963.22;107597;1251;97947;-66
2024/02/21 09:00:37;;;;;;;;;;;;;;;5.53;74.47;101962.59;107506;1254;112549;-65
2024/02/21 09:03:06;;;;;;;;;;;;;;;5.53;74.55;101963.45;107629;1256;108207;-65
2024/02/21 09:05:34;;;;;;;;;;;;;;;5.52;74.44;101966.55;107562;1251;108034;-65
2024/02/21 09:08:04;;;;;;;;;;;;;;;5.48;74.15;101966.34;107592;1251;97835;-66
2024/02/21 09:10:33;;;;;;;;;;;;;;;5.47;74.21;101967.13;107601;1250;97794;-68
2024/02/21 09:13:03;;;;;;;;;;;;;;;5.48;74.64;101962.98;107671;1251;110035;-65
2024/02/21 09:15:32;;;;;;;;;;;;;;;5.53;74.71;101966.31;107521;1251;108385;-66
2024/02/21 09:18:02;;;;;;;;;;;;;;;5.55;74.50;101967.83;107525;1251;107469;-66
2024/02/21 09:20:31;;;;;;;;;;;;;;;5.54;74.42;101967.70;107579;1251;97844;-66
2024/02/21 09:22:59;;;;;;;;;;;;;;;5.52;74.40;101965.10;107601;1251;97748;-64
2024/02/21 09:25:28;;;;;;;;;;;;;;;5.51;74.41;101964.64;107551;1251;111364;-64
2024/02/21 09:28:00;;;;;;;;;;;;;;;5.52;74.54;101964.37;107602;1251;107696;-66
2024/02/21 09:30:28;;;;;;;;;;;;;;;5.54;74.20;101966.98;107554;1254;108629;-67
2024/02/21 09:32:59;;;;;;;;;;;;;;;5.51;74.41;101964.78;107568;1254;97917;-66
2024/02/21 09:35:28;;;;;;;;;;;;;;;5.53;74.45;101963.80;107484;1254;97919;-66
2024/02/21 09:37:56;;;;;;;;;;;;;;;5.54;74.41;101960.92;107464;1254;111960;-66
2024/02/21 09:40:26;;;;;;;;;;;;;;;5.55;74.35;101959.25;107550;1255;108751;-66
2024/02/21 09:43:02;;;;;;;;;;;;;;;5.56;74.28;101959.41;107525;1255;107281;-66
2024/02/21 09:45:31;;;;;;;;;;;;;;;5.59;74.18;101958.33;107567;1257;98493;-65
2024/02/21 09:48:05;;;;;;;;;;;;;;;5.63;73.94;101953.52;107549;1256;97767;-65
2024/02/21 09:50:35;;;;;;;;;;;;;;;5.70;74.08;101951.61;107554;1251;111955;-66
2024/02/21 09:53:04;;;;;;;;;;;;;;;5.77;74.11;101959.77;107490;1252;108681;-65
2024/02/21 09:55:34;;;;;;;;;;;;;;;5.89;74.18;101954.96;107556;1254;108543;-65
2024/02/21 09:58:04;;;;;;;;;;;;;;;6.03;74.40;101953.72;107479;1256;97924;-64
2024/02/21 10:00:33;;;;;;;;;;;;;;;6.17;74.24;101955.52;107600;1256;97900;-66
2024/02/21 10:03:01;;;;;;;;;;;;;;;6.26;73.89;101950.63;107604;1256;112345;-66
2024/02/21 10:05:30;;;;;;;;;;;;;;;6.34;73.45;101946.49;107550;1256;107038;-65
2024/02/21 10:07:58;;;;;;;;;;;;;;;6.41;73.23;101948.25;107562;1254;107778;-65
2024/02/21 10:10:27;;;;;;;;;;;;;;;6.51;73.39;101944.88;107571;1254;97912;-66
2024/02/21 10:12:57;;;;;;;;;;;;;;;6.64;72.76;101940.66;107451;1257;97838;-67
2024/02/21 10:15:25;;;;;;;;;;;;;;;6.71;72.34;101940.27;107653;1255;110855;-66
2024/02/21 10:18:00;;;;;;;;;;;;;;;6.80;72.28;101941.05;107560;1257;108428;-66
2024/02/21 10:20:29;;;;;;;;;;;;;;;6.90;72.25;101931.94;107595;1254;108521;-65
2024/02/21 10:23:08;;;;;;;;;;;;;;;6.99;71.82;101925.40;107538;1257;97881;-65
2024/02/21 10:25:45;;;;;;;;;;;;;;;7.06;70.13;101923.57;107608;1254;97867;-65
2024/02/21 10:28:16;;;;;;;;;;;;;;;7.14;70.75;101919.19;107529;1256;115160;-64
2024/02/21 10:30:51;;;;;;;;;;;;;;;7.33;71.02;101916.56;107550;1253;106995;-66
2024/02/21 10:33:20;;;;;;;;;;;;;;;7.56;70.91;101907.17;107528;1256;108143;-65
2024/02/21 10:35:49;;;;;;;;;;;;;;;7.81;70.66;101901.66;107545;1256;97821;-66
2024/02/21 10:38:18;;;;;;;;;;;;;;;8.17;70.68;101893.81;107629;1254;97730;-65
2024/02/21 10:40:47;;;;;;;;;;;;;;;8.57;69.98;101892.32;107613;1254;111739;-65
2024/02/21 10:43:18;;;;;;;;;;;;;;;8.88;69.14;101889.14;107642;1257;107986;-65
2024/02/21 10:45:47;;;;;;;;;;;;;;;9.20;68.49;101885.30;107538;1257;107373;-64
2024/02/21 10:48:17;;;;;;;;;;;;;;;9.66;67.68;101878.33;107667;1254;97866;-65
2024/02/21 10:51:10;;;;;;;;;;;;;;;10.52;67.47;101872.11;107692;1256;97815;-67
2024/02/21 10:53:54;;;;;;;;;;;;;;;11.66;65.85;101864.72;107530;1255;111706;-66
2024/02/21 10:56:25;;;;;;;;;;;;;;;12.46;63.83;101856.09;107539;1254;108699;-66
2024/02/21 10:58:55;;;;;;;;;;;;;;;13.38;62.15;101852.47;107573;1256;108631;-65
2024/02/21 11:01:24;;;;;;;;;;;;;;;14.03;58.99;101849.23;107634;1254;97954;-65
2024/02/21 11:03:54;;;;;;;;;;;;;;;14.51;56.97;101839.78;107622;1254;97845;-65
2024/02/21 11:06:23;;;;;;;;;;;;;;;15.32;54.28;101837.81;107637;1257;113170;-67
2024/02/21 11:09:04;;;;;;;;;;;;;;;16.08;53.51;101833.20;107583;1254;108768;-68
2024/02/21 11:11:37;;;;;;;;;;;;;;;16.65;51.84;101832.59;107558;1256;108575;-69
2024/02/21 11:14:09;;;;;;;;;;;;;;;17.17;50.26;101826.05;107587;1254;97838;-71
2024/02/21 11:16:42;;;;;;;;;;;;;;;17.31;48.86;101819.56;107631;1255;97724;-71
2024/02/21 11:19:21;;;;;;;;;;;;;;;17.06;49.92;101820.41;107630;1254;109961;-65
2024/02/21 11:21:50;;;;;;;;;;;;;;;16.83;48.39;101811.31;107622;1254;108869;-66
2024/02/21 11:24:34;;;;;;;;;;;;;;;16.65;47.74;101811.81;107574;1251;107981;-64
2024/02/21 11:27:16;;;;;;;;;;;;;;;17.02;48.62;101812.08;107490;1254;98207;-67
2024/02/21 11:29:44;;;;;;;;;;;;;;;17.82;47.89;101811.59;107514;1251;98356;-65
2024/02/21 11:32:16;;;;;;;;;;;;;;;18.40;48.03;101806.27;107439;1251;111869;-67
2024/02/21 11:35:04;;;;;;;;;;;;;;;18.56;46.80;101802.21;107450;1253;108297;-67
2024/02/21 11:37:39;;;;;;;;;;;;;;;18.28;45.65;101802.25;107540;1255;107720;-65
2024/02/21 11:40:09;;;;;;;;;;;;;;;17.70;44.68;101799.38;107405;1254;97909;-65
2024/02/21 11:42:40;;;;;;;;;;;;;;;17.15;45.42;101793.82;107518;1253;97906;-65
2024/02/21 11:45:09;;;;;;;;;;;;;;;16.70;45.94;101791.49;107528;1255;110751;-66
2024/02/21 11:47:38;;;;;;;;;;;;;;;16.37;45.78;101786.26;107526;1253;108744;-67
2024/02/21 11:50:11;;;;;;;;;;;;;;;16.12;46.62;101784.30;107492;1254;108231;-66
2024/02/21 11:52:42;;;;;;;;;;;;;;;15.88;46.30;101785.50;107472;1254;97920;-65
2024/02/21 11:55:10;;;;;;;;;;;;;;;15.58;45.94;101786.48;107546;1254;97839;-66
2024/02/21 11:57:42;;;;;;;;;;;;;;;15.28;46.17;101785.05;107539;1255;112146;-64
2024/02/21 12:00:16;;;;;;;;;;;;;;;15.12;46.59;101783.96;107507;1255;107810;-64
2024/02/21 12:02:45;;;;;;;;;;;;;;;15.04;46.49;101778.77;107586;1256;108551;-64
2024/02/21 12:05:14;;;;;;;;;;;;;;;14.95;46.22;101780.67;107498;1257;97893;-66
2024/02/21 12:07:43;;;;;;;;;;;;;;;14.90;46.54;101779.17;107564;1251;97918;-66
2024/02/21 12:10:13;;;;;;;;;;;;;;;14.98;45.94;101775.73;107500;1251;111782;-66
2024/02/21 12:12:41;;;;;;;;;;;;;;;14.96;45.23;101773.20;107488;1251;110390;-68
2024/02/21 12:15:10;;;;;;;;;;;;;;;14.85;46.29;101777.39;107495;1251;108261;-66
2024/02/21 12:17:39;;;;;;;;;;;;;;;14.90;47.05;101773.95;107600;1251;98499;-66
2024/02/21 12:20:09;;;;;;;;;;;;;;;14.98;47.11;101771.02;107535;1251;98177;-67
2024/02/21 12:22:39;;;;;;;;;;;;;;;15.09;47.17;101766.45;107516;1255;111164;-66
2024/02/21 12:25:20;;;;;;;;;;;;;;;15.17;47.90;101760.02;107550;1257;107312;-66
2024/02/21 12:27:49;;;;;;;;;;;;;;;15.33;47.50;101755.31;107572;1254;107456;-66
2024/02/21 12:30:18;;;;;;;;;;;;;;;15.37;46.82;101756.59;107430;1254;97901;-66
2024/02/21 12:32:48;;;;;;;;;;;;;;;15.33;46.47;101754.39;107546;1251;97829;-66
2024/02/21 12:35:17;;;;;;;;;;;;;;;15.49;47.22;101750.09;107429;1251;111796;-66